Time;durP1;ratioP1;P1;durP2;ratioP2;P2;SDS_P1;SDS_P2;PMS_P1;PMS_P2;Temp;Humidity;BMP_temperature;BMP_pressure;BME280_temperature;BME280_humidity;BME280_pressure;Samples;Min_cycle;Max_cycle;Signal;HPM_P1;HPM_P2
2022/05/11 00:04:07;;;;;;;10.02;5.00;;;;;;;15.85;59.09;100217.88;8617058;33;20526;-72
2022/05/11 00:09:14;;;;;;;8.88;5.70;;;;;;;15.79;58.80;100220.38;8627352;33;20787;-73
2022/05/11 00:14:17;;;;;;;6.82;5.28;;;;;;;15.68;61.19;100221.50;8584183;33;20595;-72
2022/05/11 00:19:21;;;;;;;8.02;5.10;;;;;;;15.22;64.59;100210.03;8602909;33;20143;-72
2022/05/11 00:24:26;;;;;;;12.27;6.50;;;;;;;15.13;65.50;100195.59;8604156;33;20420;-72
2022/05/11 00:29:30;;;;;;;8.52;5.95;;;;;;;14.60;67.68;100191.13;8615089;33;20469;-72
2022/05/11 00:34:33;;;;;;;8.85;6.60;;;;;;;14.56;70.18;100187.91;8599247;33;20511;-72
2022/05/11 00:39:38;;;;;;;9.98;6.55;;;;;;;14.48;68.53;100181.53;8606464;33;20443;-72
2022/05/11 00:44:41;;;;;;;9.90;6.55;;;;;;;14.83;68.63;100169.84;8601536;33;20301;-72
2022/05/11 00:49:49;;;;;;;11.77;8.13;;;;;;;14.97;67.59;100165.72;8596493;33;20714;-72
2022/05/11 00:55:00;;;;;;;10.95;7.03;;;;;;;15.02;67.05;100177.78;8583904;33;20518;-72
2022/05/11 01:00:08;;;;;;;11.10;7.75;;;;;;;14.76;66.39;100177.75;8580649;33;20193;-73
2022/05/11 01:05:12;;;;;;;9.02;5.40;;;;;;;14.80;66.06;100165.59;8580081;33;20152;-72
2022/05/11 01:10:16;;;;;;;12.23;6.65;;;;;;;15.03;65.42;100151.59;8598773;33;20155;-72
2022/05/11 01:15:21;;;;;;;11.10;5.70;;;;;;;15.17;63.41;100144.75;8585689;33;20464;-72
2022/05/11 01:20:26;;;;;;;8.82;5.55;;;;;;;15.26;62.41;100125.69;8575810;33;20239;-73
2022/05/11 01:25:31;;;;;;;6.80;5.68;;;;;;;15.26;62.08;100130.25;8602979;33;20298;-72
2022/05/11 01:30:35;;;;;;;8.68;5.38;;;;;;;15.37;61.47;100131.84;8580736;33;20242;-72
2022/05/11 01:35:48;;;;;;;8.20;5.47;;;;;;;15.33;61.83;100119.59;8625879;33;20153;-72
2022/05/11 01:40:53;;;;;;;8.45;6.13;;;;;;;15.39;62.35;100109.03;8650556;33;20558;-72
2022/05/11 01:45:56;;;;;;;10.93;6.97;;;;;;;15.22;62.52;100108.09;8638076;33;20736;-73
2022/05/11 01:51:00;;;;;;;11.32;6.32;;;;;;;15.27;62.38;100092.19;8628700;33;20146;-72
2022/05/11 01:56:06;;;;;;;9.98;6.30;;;;;;;15.15;62.16;100100.78;8640566;33;20487;-72
2022/05/11 02:01:09;;;;;;;9.52;6.05;;;;;;;15.29;61.90;100086.63;8650422;33;20654;-72
2022/05/11 02:11:35;;;;;;;8.20;6.18;;;;;;;15.34;60.29;100076.19;8638764;33;20485;-72
2022/05/11 02:16:38;;;;;;;9.00;6.07;;;;;;;15.48;61.00;100055.78;8615514;33;20484;-72
2022/05/11 02:21:41;;;;;;;11.07;7.38;;;;;;;15.41;61.23;100069.13;8601377;33;21009;-72
2022/05/11 02:26:45;;;;;;;10.38;6.50;;;;;;;15.40;60.54;100055.75;8593606;33;20600;-72
2022/05/11 02:31:48;;;;;;;9.00;6.05;;;;;;;15.44;60.11;100062.50;8595124;33;20414;-72
2022/05/11 02:36:52;;;;;;;12.23;6.90;;;;;;;15.46;59.80;100063.22;8594236;33;20212;-72
2022/05/11 02:41:56;;;;;;;9.18;6.10;;;;;;;15.33;59.97;100055.53;8601323;33;20144;-73
2022/05/11 02:46:59;;;;;;;10.48;7.15;;;;;;;15.40;60.23;100050.34;8605859;33;20178;-73
2022/05/11 02:52:02;;;;;;;10.02;6.82;;;;;;;15.41;60.56;100046.59;8593215;33;20247;-73
2022/05/11 02:57:07;;;;;;;8.85;6.75;;;;;;;15.46;60.38;100028.03;8581430;33;20620;-73
2022/05/11 03:02:12;;;;;;;11.32;7.38;;;;;;;15.40;60.55;100025.97;8593226;33;20425;-73
2022/05/11 03:07:16;;;;;;;11.38;8.10;;;;;;;15.41;60.96;100033.06;8594520;33;20419;-73
2022/05/11 03:12:22;;;;;;;12.25;8.82;;;;;;;15.46;60.90;100033.44;8575377;33;20242;-73
2022/05/11 03:17:26;;;;;;;12.52;8.43;;;;;;;15.46;61.06;100034.28;8588125;33;20148;-73
2022/05/11 03:22:29;;;;;;;12.80;8.18;;;;;;;15.35;61.65;100031.88;8607563;28;20155;-75
2022/05/11 03:27:33;;;;;;;12.82;8.35;;;;;;;15.45;61.31;100021.75;8602061;33;20190;-75
2022/05/11 03:37:57;;;;;;;13.48;9.82;;;;;;;15.28;62.78;100028.13;8614397;33;20439;-74
2022/05/11 03:43:04;;;;;;;17.13;9.75;;;;;;;15.14;63.22;100026.00;8575526;33;20923;-74
2022/05/11 03:48:08;;;;;;;15.43;9.77;;;;;;;15.17;63.37;100017.59;8587997;33;20563;-75
2022/05/11 03:53:11;;;;;;;15.57;10.50;;;;;;;15.21;63.92;100016.25;8582285;33;20282;-74
2022/05/11 03:58:15;;;;;;;13.52;10.00;;;;;;;15.26;63.69;100011.19;8598940;33;20287;-74
2022/05/11 04:03:18;;;;;;;15.85;10.48;;;;;;;15.20;64.06;100007.28;8579349;33;20494;-74
2022/05/11 04:08:22;;;;;;;15.23;10.32;;;;;;;15.20;64.16;100010.00;8604097;33;20420;-74
2022/05/11 04:13:26;;;;;;;14.13;10.23;;;;;;;15.19;64.18;100013.72;8590950;33;20186;-75
2022/05/11 04:18:29;;;;;;;17.73;10.35;;;;;;;15.19;64.71;100013.72;8581516;33;20519;-75
2022/05/11 04:23:32;;;;;;;17.27;11.07;;;;;;;15.26;64.56;100003.91;8589446;33;20425;-74
2022/05/11 04:28:38;;;;;;;16.38;10.45;;;;;;;15.32;64.65;100009.69;8591278;33;20140;-75
2022/05/11 04:33:42;;;;;;;15.32;11.13;;;;;;;15.40;64.98;99999.75;8623137;33;20223;-75
2022/05/11 04:38:45;;;;;;;15.40;11.02;;;;;;;15.44;64.58;100017.38;8614343;33;20148;-75
2022/05/11 04:43:49;;;;;;;17.50;11.93;;;;;;;15.55;64.55;100009.94;8597505;33;20155;-75
2022/05/11 04:49:16;;;;;;;18.17;11.50;;;;;;;15.58;64.21;99994.22;8641194;33;20540;-75
2022/05/11 04:54:16;;;;;;;16.65;11.48;;;;;;;15.58;64.37;99994.22;8637719;33;20916;-74
2022/05/11 04:59:22;;;;;;;15.73;10.77;;;;;;;15.72;63.87;99994.59;8624821;33;20418;-74
2022/05/11 05:04:25;;;;;;;17.50;11.02;;;;;;;15.70;63.96;99990.19;8617435;33;20629;-74
2022/05/11 05:09:28;;;;;;;14.50;10.43;;;;;;;15.85;63.43;99986.78;8625325;33;20481;-74
2022/05/11 05:14:32;;;;;;;15.73;10.98;;;;;;;15.99;63.23;99994.28;8580922;33;20499;-74
2022/05/11 05:19:37;;;;;;;16.13;11.32;;;;;;;15.98;62.99;99991.72;8577582;33;20473;-74
2022/05/11 05:24:41;;;;;;;17.48;11.02;;;;;;;16.09;63.05;99989.50;8615148;33;20539;-74
2022/05/11 05:35:09;;;;;;;18.08;10.68;;;;;;;16.68;61.39;99983.03;8592077;33;20148;-74
2022/05/11 05:40:13;;;;;;;15.90;11.35;;;;;;;16.73;60.27;99972.50;8578841;33;20449;-74
2022/05/11 05:45:18;;;;;;;17.65;12.00;;;;;;;16.96;60.15;99972.59;8602513;33;20424;-74
2022/05/11 05:50:21;;;;;;;15.35;10.38;;;;;;;17.15;59.45;99976.78;8567104;33;20191;-74
2022/05/11 05:55:24;;;;;;;14.00;9.38;;;;;;;17.12;58.55;99958.94;8605092;33;20472;-74
2022/05/11 06:00:29;;;;;;;15.38;9.90;;;;;;;17.20;58.40;99956.22;8618841;33;20422;-74
2022/05/11 06:05:32;;;;;;;17.92;10.27;;;;;;;17.14;58.77;99961.50;8632495;33;20504;-75
2022/05/11 06:10:39;;;;;;;13.35;9.63;;;;;;;17.16;59.22;99962.19;8631593;33;20550;-74
2022/05/11 06:15:44;;;;;;;15.55;10.32;;;;;;;17.53;60.12;99963.34;8616918;33;20393;-75
2022/05/11 06:20:51;;;;;;;13.20;10.00;;;;;;;17.64;59.20;99965.63;8634849;33;20132;-74
2022/05/11 06:25:54;;;;;;;16.83;10.68;;;;;;;17.67;58.70;99959.84;8634473;33;20147;-74
2022/05/11 06:30:58;;;;;;;15.40;10.27;;;;;;;18.07;57.61;99960.53;8634027;33;20163;-74
2022/05/11 06:36:02;;;;;;;13.27;9.68;;;;;;;18.77;55.92;99954.72;8635647;33;20416;-75
2022/05/11 06:41:10;;;;;;;15.02;9.85;;;;;;;18.69;54.14;99940.38;8623530;33;20448;-76
2022/05/11 06:46:14;;;;;;;12.23;8.85;;;;;;;18.84;53.10;99954.00;8596825;33;20152;-76
2022/05/11 06:51:20;;;;;;;13.55;8.80;;;;;;;18.90;52.31;99953.25;8582400;33;20508;-75
2022/05/11 07:01:45;;;;;;;9.13;7.00;;;;;;;19.31;50.80;99944.50;8626433;33;20407;-75
2022/05/11 07:06:48;;;;;;;9.60;6.93;;;;;;;19.56;48.44;99939.59;8615432;33;20261;-79
2022/05/11 07:17:30;;;;;;;9.60;6.78;;;;;;;19.37;49.45;99932.88;8605249;33;20657;-76
2022/05/11 07:22:34;;;;;;;10.10;6.80;;;;;;;19.84;48.54;99924.16;8582347;33;20458;-77
2022/05/11 07:27:37;;;;;;;10.43;6.35;;;;;;;19.99;48.22;99918.59;8619891;33;20228;-76
2022/05/11 07:32:42;;;;;;;7.68;5.95;;;;;;;20.24;46.63;99912.69;8609509;33;20479;-77
2022/05/11 07:37:47;;;;;;;8.02;5.25;;;;;;;19.92;45.87;99911.44;8606751;33;20238;-76
2022/05/11 07:42:51;;;;;;;11.80;6.35;;;;;;;20.42;44.24;99904.88;8590560;33;21052;-76
2022/05/11 07:47:55;;;;;;;9.00;5.50;;;;;;;20.54;46.89;99906.03;8615522;33;20154;-75
2022/05/11 07:52:59;;;;;;;6.07;4.53;;;;;;;20.53;44.77;99906.22;8623492;33;20514;-76
2022/05/11 08:03:24;;;;;;;8.10;5.88;;;;;;;20.88;46.02;99895.28;8629127;33;20147;-77
2022/05/11 08:08:29;;;;;;;9.80;6.68;;;;;;;20.50;45.99;99899.28;8558216;33;20457;-77
2022/05/11 08:13:32;;;;;;;11.93;6.90;;;;;;;20.75;44.78;99882.41;8569845;33;20429;-77
2022/05/11 08:18:36;;;;;;;10.23;6.55;;;;;;;20.92;43.94;99878.25;8537245;33;20480;-77
2022/05/11 08:23:40;;;;;;;9.18;6.20;;;;;;;20.93;45.02;99881.84;8575168;33;20418;-78
2022/05/11 08:28:43;;;;;;;12.48;6.28;;;;;;;20.73;45.20;99859.91;8567475;33;20163;-76
2022/05/11 08:33:48;;;;;;;6.65;5.80;;;;;;;21.30;44.97;99855.91;8567298;33;21261;-77
2022/05/11 08:39:11;;;;;;;10.63;6.63;;;;;;;21.56;43.83;99854.28;8541421;33;20424;-77
2022/05/11 08:44:17;;;;;;;7.22;5.05;;;;;;;20.88;44.72;99859.78;8529217;33;20950;-77
2022/05/11 08:49:34;;;;;;;8.02;5.78;;;;;;;21.42;43.80;99854.28;8542373;33;20517;-77
2022/05/11 08:54:46;;;;;;;5.40;4.88;;;;;;;21.19;44.12;99859.25;8539133;33;20149;-75
2022/05/11 08:59:49;;;;;;;7.82;5.70;;;;;;;21.41;43.64;99868.13;8549116;33;20164;-74
2022/05/11 09:04:56;;;;;;;11.43;6.00;;;;;;;21.82;44.25;99858.94;8552345;33;20265;-77
2022/05/11 09:09:59;;;;;;;10.68;5.53;;;;;;;21.49;43.75;99878.84;8550806;33;20467;-77
2022/05/11 09:15:05;;;;;;;7.65;5.80;;;;;;;21.58;43.71;99863.94;8538153;33;20148;-76
2022/05/11 09:20:13;;;;;;;8.63;5.55;;;;;;;22.11;44.05;99846.72;8561048;33;20444;-76
2022/05/11 09:25:21;;;;;;;6.35;5.22;;;;;;;21.68;43.05;99863.53;8531695;33;20180;-77
2022/05/11 09:30:28;;;;;;;7.75;5.72;;;;;;;21.89;42.48;99855.16;8549949;33;20616;-77
2022/05/11 09:35:37;;;;;;;9.20;6.15;;;;;;;22.06;41.52;99852.81;8541942;33;20195;-77
2022/05/11 09:40:55;;;;;;;9.35;5.97;;;;;;;21.96;44.09;99860.59;8528404;33;20436;-77
2022/05/11 09:46:01;;;;;;;17.67;6.95;;;;;;;21.91;43.18;99848.63;8543555;33;20713;-77
2022/05/11 09:51:21;;;;;;;8.88;6.43;;;;;;;22.36;42.53;99851.50;8580864;33;20405;-77
2022/05/11 09:56:32;;;;;;;6.65;5.40;;;;;;;22.80;43.18;99847.16;8574739;33;21210;-77
2022/05/11 10:01:35;;;;;;;8.70;5.57;;;;;;;22.45;41.18;99855.69;8576702;33;20447;-77
2022/05/11 10:06:56;;;;;;;8.30;5.15;;;;;;;22.18;42.67;99831.13;8563276;33;20441;-76
2022/05/11 10:12:01;;;;;;;7.80;6.43;;;;;;;23.00;43.15;99840.50;8560712;33;20458;-77
2022/05/11 10:22:57;;;;;;;9.27;6.75;;;;;;;23.04;40.99;99819.00;8546122;33;21157;-77
2022/05/11 10:28:10;;;;;;;8.63;5.68;;;;;;;23.11;41.25;99822.56;8528474;33;20568;-77
2022/05/11 10:33:49;;;;;;;7.32;4.97;;;;;;;22.60;41.76;99819.84;8538105;33;21016;-76
2022/05/11 10:39:15;;;;;;;9.77;5.60;;;;;;;23.20;41.99;99812.19;8517120;33;20206;-76
2022/05/11 10:44:53;;;;;;;5.78;3.83;;;;;;;23.16;42.14;99808.22;8545480;33;20472;-76
2022/05/11 10:50:11;;;;;;;8.20;5.82;;;;;;;24.41;41.31;99810.06;8541149;33;20943;-77
2022/05/11 10:55:25;;;;;;;6.93;5.10;;;;;;;23.91;39.07;99835.66;8543841;33;20416;-77
2022/05/11 11:00:34;;;;;;;7.95;4.63;;;;;;;22.37;41.56;99821.19;8536651;33;20506;-76
2022/05/11 11:11:23;;;;;;;6.07;5.07;;;;;;;22.66;41.09;99808.06;8554646;33;20243;-75
2022/05/11 11:16:32;;;;;;;7.38;5.63;;;;;;;22.99;41.41;99807.88;8588618;33;20459;-77
2022/05/11 11:21:40;;;;;;;6.15;4.72;;;;;;;23.04;40.54;99799.84;8537991;33;20412;-77
2022/05/11 11:26:51;;;;;;;7.47;4.45;;;;;;;23.13;40.11;99825.94;8570999;33;20475;-76
2022/05/11 11:32:16;;;;;;;7.00;5.00;;;;;;;23.07;41.73;99807.63;8536268;33;20943;-77
2022/05/11 11:37:45;;;;;;;9.23;5.07;;;;;;;23.30;40.14;99806.22;8536650;33;20189;-77
2022/05/11 11:42:51;;;;;;;7.13;4.47;;;;;;;23.50;40.58;99776.75;8540934;33;20148;-76
2022/05/11 11:48:03;;;;;;;5.68;4.57;;;;;;;23.60;40.87;99800.91;8579640;33;20551;-77
2022/05/11 11:53:13;;;;;;;6.07;4.20;;;;;;;24.79;39.03;99798.78;8576389;33;20414;-77
2022/05/11 11:58:27;;;;;;;6.55;3.75;;;;;;;24.01;38.66;99794.03;8570014;33;20179;-76
2022/05/11 12:03:35;;;;;;;6.00;4.63;;;;;;;23.86;38.83;99788.88;8587706;33;20888;-77
2022/05/11 12:19:33;;;;;;;5.15;3.78;;;;;;;24.20;37.42;99778.41;8556360;33;20274;-76
2022/05/11 12:24:41;;;;;;;4.53;3.92;;;;;;;24.22;38.25;99774.38;8551028;33;20239;-77
2022/05/11 12:29:58;;;;;;;5.90;4.30;;;;;;;24.93;37.14;99753.63;8583392;33;20268;-77
2022/05/11 12:35:11;;;;;;;6.85;4.00;;;;;;;23.88;38.90;99759.34;8569089;33;20144;-76
2022/05/11 12:40:19;;;;;;;6.50;4.20;;;;;;;24.82;39.30;99739.81;8551231;33;20925;-77
2022/05/11 12:45:32;;;;;;;6.68;3.75;;;;;;;24.77;37.43;99740.53;8563043;33;20419;-77
2022/05/11 12:50:38;;;;;;;5.05;3.58;;;;;;;23.92;38.26;99741.38;8542101;33;20156;-77
2022/05/11 12:55:47;;;;;;;6.50;3.67;;;;;;;24.41;37.59;99733.22;8550903;33;20990;-77
2022/05/11 13:00:59;;;;;;;4.78;3.85;;;;;;;24.37;36.52;99730.06;8546867;33;20640;-76
2022/05/11 13:06:06;;;;;;;5.95;3.30;;;;;;;24.83;35.40;99716.81;8566533;33;20157;-76
2022/05/11 13:11:15;;;;;;;4.35;3.78;;;;;;;25.31;34.20;99707.59;8525754;33;20270;-75
2022/05/11 13:16:24;;;;;;;7.43;3.80;;;;;;;25.23;35.47;99714.25;8586473;33;20295;-76
2022/05/11 13:21:31;;;;;;;5.45;3.30;;;;;;;25.69;35.50;99698.06;8560465;33;20446;-74
2022/05/11 13:26:41;;;;;;;7.20;3.78;;;;;;;25.45;34.21;99699.94;8564553;33;20423;-74
2022/05/11 13:32:01;;;;;;;5.75;3.45;;;;;;;25.03;34.94;99667.06;8578471;33;20149;-75
2022/05/11 13:37:05;;;;;;;5.57;3.10;;;;;;;24.66;35.02;99680.94;8565696;33;20521;-76
2022/05/11 13:42:20;;;;;;;5.93;3.20;;;;;;;24.66;35.43;99672.69;8566994;33;20422;-75
2022/05/11 13:52:56;;;;;;;4.05;3.40;;;;;;;25.10;33.78;99687.03;8580075;33;20458;-76
2022/05/11 13:58:26;;;;;;;5.13;3.30;;;;;;;25.47;34.09;99665.63;8567849;33;20480;-76
2022/05/11 14:03:34;;;;;;;7.30;3.42;;;;;;;25.69;33.31;99659.56;8583331;33;20262;-76
2022/05/11 14:08:38;;;;;;;3.63;2.72;;;;;;;25.53;33.21;99652.84;8584964;33;20144;-76
2022/05/11 14:13:47;;;;;;;5.47;3.15;;;;;;;24.84;34.62;99650.63;8558748;33;20495;-76
2022/05/11 14:18:54;;;;;;;4.72;2.78;;;;;;;24.90;33.68;99655.22;8581176;33;20934;-76
2022/05/11 14:23:57;;;;;;;4.05;2.60;;;;;;;24.94;34.38;99641.81;8561565;33;20538;-76
2022/05/11 14:29:00;;;;;;;4.53;3.22;;;;;;;25.35;33.50;99651.06;8589911;33;20463;-76
2022/05/11 14:34:06;;;;;;;4.28;3.15;;;;;;;25.60;33.31;99623.31;8577225;33;20488;-76
2022/05/11 14:39:09;;;;;;;4.75;3.15;;;;;;;26.07;32.95;99621.28;8535896;33;20140;-76
2022/05/11 14:44:13;;;;;;;5.05;3.50;;;;;;;26.13;32.87;99624.97;8563458;33;20254;-75
2022/05/11 14:49:17;;;;;;;4.40;2.25;;;;;;;25.23;33.21;99606.25;8570830;33;20124;-76
2022/05/11 14:54:21;;;;;;;7.60;2.78;;;;;;;25.00;34.01;99598.84;8577418;33;20973;-75
2022/05/11 15:04:47;;;;;;;4.82;2.95;;;;;;;25.59;34.23;99608.75;8547904;33;20294;-75
2022/05/11 15:09:51;;;;;;;4.28;2.88;;;;;;;25.75;33.22;99603.56;8552692;33;20159;-75
2022/05/11 15:14:54;;;;;;;5.32;2.53;;;;;;;25.95;32.82;99603.19;8558472;33;20688;-75
2022/05/11 15:20:00;;;;;;;4.13;2.63;;;;;;;25.30;33.26;99577.59;8557702;33;20613;-75
2022/05/11 15:25:04;;;;;;;6.60;2.60;;;;;;;25.55;33.47;99577.28;8555950;28;20199;-73
2022/05/11 15:30:09;;;;;;;8.95;2.95;;;;;;;25.78;33.68;99578.34;8551625;33;20409;-72
2022/05/11 15:35:18;;;;;;;4.45;2.85;;;;;;;25.42;33.65;99583.06;8559962;33;20939;-72
2022/05/11 15:40:26;;;;;;;7.72;2.80;;;;;;;26.21;33.79;99579.72;8572253;33;20415;-72
2022/05/11 15:45:39;;;;;;;5.32;3.00;;;;;;;25.15;33.71;99569.84;8563551;33;20433;-73
2022/05/11 15:50:44;;;;;;;5.80;2.70;;;;;;;25.84;33.40;99571.88;8560344;33;20581;-72
2022/05/11 15:55:47;;;;;;;4.03;2.58;;;;;;;25.80;32.71;99563.25;8542961;33;20656;-73
2022/05/11 16:00:51;;;;;;;6.28;2.45;;;;;;;25.13;33.79;99551.94;8539538;33;20145;-73
2022/05/11 16:05:56;;;;;;;7.03;2.70;;;;;;;24.67;35.15;99559.88;8534119;33;20514;-73
2022/05/11 16:11:01;;;;;;;3.38;2.72;;;;;;;25.42;34.27;99555.56;8563790;33;20183;-73
2022/05/11 16:16:05;;;;;;;6.65;2.60;;;;;;;25.41;33.89;99562.97;8554977;33;21001;-72
2022/05/11 16:21:11;;;;;;;3.00;2.45;;;;;;;25.46;34.67;99559.50;8569188;33;20420;-73
2022/05/11 16:26:14;;;;;;;4.30;2.60;;;;;;;25.46;34.37;99564.19;8556507;33;20152;-74
2022/05/11 16:31:17;;;;;;;6.88;2.60;;;;;;;25.54;34.05;99544.56;8558724;33;20171;-73
2022/05/11 16:36:22;;;;;;;4.22;2.22;;;;;;;25.16;34.26;99552.28;8573141;33;20148;-73
2022/05/11 16:41:25;;;;;;;5.57;2.47;;;;;;;25.37;34.10;99555.47;8571461;33;20233;-73
2022/05/11 16:46:28;;;;;;;4.82;2.42;;;;;;;24.96;34.90;99549.88;8571222;33;20412;-73
2022/05/11 16:51:33;;;;;;;6.68;2.40;;;;;;;25.23;34.77;99545.81;8537650;33;20133;-73
2022/05/11 16:56:36;;;;;;;4.40;2.40;;;;;;;23.86;35.89;99561.28;8524122;33;20326;-73
2022/05/11 17:01:39;;;;;;;5.10;2.75;;;;;;;26.73;32.51;99565.78;8542106;33;20511;-73
2022/05/11 17:06:44;;;;;;;4.22;2.08;;;;;;;27.80;30.68;99561.81;8548980;33;20923;-74
2022/05/11 17:11:48;;;;;;;3.30;2.10;;;;;;;26.59;32.34;99558.94;8526781;33;21138;-73
2022/05/11 17:16:51;;;;;;;5.53;2.28;;;;;;;27.07;31.60;99561.13;8536120;33;20417;-74
2022/05/11 17:21:57;;;;;;;7.47;2.92;;;;;;;27.15;31.56;99554.31;8563129;33;20465;-73
2022/05/11 17:27:01;;;;;;;3.08;2.38;;;;;;;25.89;32.41;99563.72;8524882;33;20901;-73
2022/05/11 17:32:07;;;;;;;6.60;2.85;;;;;;;26.85;31.89;99557.44;8550808;33;20624;-74
2022/05/11 17:37:12;;;;;;;5.85;2.42;;;;;;;25.17;33.64;99558.59;8550355;33;21108;-73
2022/05/11 17:42:15;;;;;;;7.40;2.75;;;;;;;25.00;34.34;99565.88;8553770;33;20157;-74
2022/05/11 17:47:19;;;;;;;7.93;2.85;;;;;;;24.20;34.93;99556.19;8528352;33;20444;-73
2022/05/11 17:52:24;;;;;;;2.88;2.22;;;;;;;24.14;35.27;99568.09;8526877;33;20430;-74
2022/05/11 17:57:27;;;;;;;4.07;2.40;;;;;;;23.65;36.03;99568.09;8537806;33;20692;-73
2022/05/11 18:02:30;;;;;;;6.32;2.75;;;;;;;23.09;37.28;99567.22;8550930;33;20513;-74
2022/05/11 18:07:35;;;;;;;5.30;2.72;;;;;;;23.17;38.09;99564.19;8536994;33;20988;-73
2022/05/11 18:12:38;;;;;;;4.97;2.38;;;;;;;22.35;38.51;99582.53;8526759;33;20418;-74
2022/05/11 18:17:43;;;;;;;6.65;2.88;;;;;;;22.22;39.30;99582.66;8556037;33;20521;-73
2022/05/11 18:22:48;;;;;;;6.38;2.45;;;;;;;22.14;39.46;99593.84;8519866;33;20520;-74
2022/05/11 18:27:53;;;;;;;5.18;2.33;;;;;;;22.17;39.72;99596.97;8543129;33;20306;-72
2022/05/11 18:32:56;;;;;;;4.97;2.53;;;;;;;21.54;39.84;99596.81;8548642;33;20953;-73
2022/05/11 18:38:01;;;;;;;6.25;2.40;;;;;;;21.61;40.51;99601.22;8558489;33;21362;-74
2022/05/11 18:43:05;;;;;;;4.22;2.28;;;;;;;21.48;40.84;99603.97;8566624;33;20413;-74
2022/05/11 18:48:08;;;;;;;5.47;2.80;;;;;;;21.21;41.25;99606.75;8535538;33;20466;-73
2022/05/11 18:53:13;;;;;;;3.92;2.45;;;;;;;21.50;40.96;99604.56;8568608;33;20421;-74
2022/05/11 18:58:16;;;;;;;7.07;2.63;;;;;;;21.51;40.99;99609.00;8571150;33;20678;-74
2022/05/11 19:03:19;;;;;;;3.17;2.10;;;;;;;21.28;41.74;99619.56;8560914;33;20158;-74
2022/05/11 19:08:23;;;;;;;6.10;3.03;;;;;;;21.15;42.30;99626.75;8551572;33;20261;-74
2022/05/11 19:13:26;;;;;;;7.07;2.53;;;;;;;21.08;42.62;99625.06;8552261;33;20511;-74
2022/05/11 19:18:29;;;;;;;6.13;2.42;;;;;;;20.97;42.15;99630.06;8543158;33;20522;-74
2022/05/11 19:23:34;;;;;;;5.75;2.60;;;;;;;20.85;43.10;99636.38;8547021;33;20440;-75
2022/05/11 19:28:39;;;;;;;5.07;3.03;;;;;;;20.65;43.84;99642.69;8537830;33;20246;-75
2022/05/11 19:33:42;;;;;;;5.25;2.65;;;;;;;20.75;43.71;99640.34;8557029;33;20554;-74
2022/05/11 19:38:48;;;;;;;3.65;2.45;;;;;;;20.84;43.32;99626.50;8530311;33;20459;-74
2022/05/11 19:43:53;;;;;;;7.50;3.05;;;;;;;20.65;43.65;99641.81;8546286;33;20698;-73
2022/05/11 19:48:56;;;;;;;4.57;2.70;;;;;;;20.49;44.27;99632.16;8518735;33;20179;-73
2022/05/11 19:54:01;;;;;;;7.20;2.70;;;;;;;20.39;44.05;99639.91;8541567;33;20164;-73
2022/05/11 19:59:04;;;;;;;3.50;2.65;;;;;;;20.52;44.06;99637.19;8570896;33;20654;-73
2022/05/11 20:04:07;;;;;;;3.40;3.10;;;;;;;20.65;43.77;99641.81;8573923;33;20246;-73
2022/05/11 20:09:12;;;;;;;5.97;2.70;;;;;;;20.48;44.16;99644.94;8579966;33;20152;-73
2022/05/11 20:14:15;;;;;;;4.28;2.90;;;;;;;20.48;44.69;99641.38;8563414;33;20140;-73
2022/05/11 20:19:18;;;;;;;6.80;2.70;;;;;;;19.98;45.03;99646.25;8581172;33;20452;-73
2022/05/11 20:24:23;;;;;;;4.53;3.20;;;;;;;19.81;45.72;99637.59;8569434;33;21019;-73
2022/05/11 20:29:26;;;;;;;6.05;3.20;;;;;;;19.72;45.85;99644.22;8582283;33;20132;-73
2022/05/11 20:39:51;;;;;;;3.50;2.88;;;;;;;19.78;46.01;99647.00;8587352;33;20400;-73
2022/05/11 20:44:56;;;;;;;3.78;3.00;;;;;;;19.62;46.44;99650.91;8572958;33;20148;-73
2022/05/11 20:49:59;;;;;;;3.67;2.67;;;;;;;19.60;46.18;99652.13;8543950;33;20140;-73
2022/05/11 20:55:04;;;;;;;3.92;3.00;;;;;;;19.67;46.06;99659.31;8564995;33;20230;-73
2022/05/11 21:00:10;;;;;;;5.03;3.53;;;;;;;19.59;46.36;99654.03;8547239;33;20161;-73
2022/05/11 21:05:14;;;;;;;7.20;3.10;;;;;;;19.52;46.32;99657.72;8564390;33;21242;-73
2022/05/11 21:10:22;;;;;;;7.47;3.22;;;;;;;19.35;47.19;99658.03;8551324;33;20151;-73
2022/05/11 21:15:26;;;;;;;8.23;3.15;;;;;;;19.06;47.72;99671.84;8525744;33;20411;-73
2022/05/11 21:20:30;;;;;;;4.38;3.13;;;;;;;19.31;47.46;99664.94;8520067;33;20252;-73
2022/05/11 21:25:35;;;;;;;6.32;3.13;;;;;;;18.67;48.81;99667.69;8540618;28;20411;-75
2022/05/11 21:30:39;;;;;;;5.75;2.85;;;;;;;19.04;47.94;99661.16;8541314;33;20422;-75
2022/05/11 21:35:42;;;;;;;4.97;2.95;;;;;;;18.89;48.25;99646.78;8556494;33;20409;-75
2022/05/11 21:40:47;;;;;;;4.25;2.95;;;;;;;19.24;50.23;99655.88;8548410;33;20885;-75
2022/05/11 21:45:50;;;;;;;5.32;2.80;;;;;;;18.33;54.55;99713.56;8541665;33;20159;-75
2022/05/11 21:50:54;;;;;;;8.05;4.07;;;;;;;14.75;80.38;99675.06;8562324;33;20160;-77
2022/05/11 21:55:58;;;;;;;6.82;4.50;;;;;;;13.87;84.69;99662.88;8555152;33;20141;-77
2022/05/11 22:01:23;;;;;;;5.32;4.30;;;;;;;13.84;85.10;99695.59;8568587;33;20456;-76
2022/05/11 22:06:26;;;;;;;10.00;4.25;;;;;;;13.64;80.70;99780.50;8546146;33;20165;-76
2022/05/11 22:11:31;;;;;;;0.52;0.50;;;;;;;12.62;85.02;99806.06;8540796;33;20159;-76
2022/05/11 22:16:35;;;;;;;0.85;0.70;;;;;;;12.29;88.31;99748.28;8529967;33;20441;-76
2022/05/11 22:21:39;;;;;;;0.63;0.47;;;;;;;12.42;87.68;99767.59;8571521;33;20412;-76
2022/05/11 22:26:43;;;;;;;0.43;0.43;;;;;;;12.52;86.79;99787.25;8541654;33;20160;-76
2022/05/11 22:31:47;;;;;;;0.47;0.47;;;;;;;12.81;87.22;99805.09;8548595;33;20471;-76
2022/05/11 22:36:51;;;;;;;0.68;0.68;;;;;;;12.94;86.04;99818.16;8520539;33;20409;-76
2022/05/11 22:41:55;;;;;;;0.25;0.25;;;;;;;13.02;85.67;99819.09;8557389;33;20423;-75
2022/05/11 22:46:58;;;;;;;1.08;0.82;;;;;;;13.30;83.92;99797.41;8533112;33;20432;-76
2022/05/11 22:52:01;;;;;;;0.55;0.55;;;;;;;13.61;80.43;99789.78;8565421;33;20406;-76
2022/05/11 22:57:07;;;;;;;0.52;0.47;;;;;;;13.51;77.29;99775.53;8554552;33;20418;-75
2022/05/11 23:02:10;;;;;;;0.30;0.30;;;;;;;13.78;77.24;99787.19;8570689;33;20634;-75
2022/05/11 23:07:14;;;;;;;3.53;0.90;;;;;;;13.76;75.20;99798.13;8540678;33;20440;-76
2022/05/11 23:12:18;;;;;;;0.40;0.40;;;;;;;13.91;76.02;99820.00;8575174;33;20148;-76
2022/05/11 23:17:21;;;;;;;0.63;0.30;;;;;;;13.59;78.68;99834.94;8566941;33;20640;-76
2022/05/11 23:22:24;;;;;;;0.30;0.30;;;;;;;12.49;81.35;99837.91;8540181;33;20152;-75
2022/05/11 23:27:29;;;;;;;0.20;0.20;;;;;;;12.09;87.33;99868.63;8546585;33;20603;-76
2022/05/11 23:32:32;;;;;;;0.20;0.20;;;;;;;12.02;90.66;99865.69;8560102;33;20283;-76
2022/05/11 23:37:37;;;;;;;0.30;0.30;;;;;;;11.94;90.47;99852.13;8576280;33;20152;-78
2022/05/11 23:42:41;;;;;;;0.30;0.30;;;;;;;12.07;90.13;99839.19;8524643;33;20556;-76
2022/05/11 23:47:47;;;;;;;0.52;0.52;;;;;;;11.98;90.46;99820.38;8553008;33;20153;-77
2022/05/11 23:52:51;;;;;;;0.32;0.32;;;;;;;12.16;89.59;99824.84;8552603;33;20457;-77
2022/05/11 23:57:55;;;;;;;1.17;0.43;;;;;;;12.25;89.25;99822.25;8535434;33;20163;-77
